sensor_id;sensor_type;location;lat;lon;timestamp;P1;durP1;ratioP1;P2;durP2;ratioP2
27543;SDS011;17996;51.056;3.656;2023-01-01T00:00:02;22.27;;;4.13;;
27543;SDS011;17996;51.056;3.656;2023-01-01T00:02:30;18.45;;;3.72;;
27543;SDS011;17996;51.056;3.656;2023-01-01T00:04:56;13.48;;;3.80;;
27543;SDS011;17996;51.056;3.656;2023-01-01T00:07:22;10.38;;;3.60;;
27543;SDS011;17996;51.056;3.656;2023-01-01T00:09:47;14.18;;;3.55;;
27543;SDS011;17996;51.056;3.656;2023-01-01T00:12:32;9.55;;;3.58;;
27543;SDS011;17996;51.056;3.656;2023-01-01T00:14:58;15.27;;;3.92;;
27543;SDS011;17996;51.056;3.656;2023-01-01T00:17:24;11.18;;;3.70;;
27543;SDS011;17996;51.056;3.656;2023-01-01T00:19:49;12.55;;;4.05;;
27543;SDS011;17996;51.056;3.656;2023-01-01T00:22:15;10.13;;;3.88;;
27543;SDS011;17996;51.056;3.656;2023-01-01T00:24:41;10.57;;;3.15;;
27543;SDS011;17996;51.056;3.656;2023-01-01T00:27:07;9.65;;;3.28;;
27543;SDS011;17996;51.056;3.656;2023-01-01T00:29:33;11.02;;;3.80;;
27543;SDS011;17996;51.056;3.656;2023-01-01T00:31:58;15.40;;;4.28;;
27543;SDS011;17996;51.056;3.656;2023-01-01T00:34:24;16.30;;;3.60;;
27543;SDS011;17996;51.056;3.656;2023-01-01T00:36:50;19.25;;;3.40;;
27543;SDS011;17996;51.056;3.656;2023-01-01T00:39:15;11.48;;;3.63;;
27543;SDS011;17996;51.056;3.656;2023-01-01T00:41:41;26.80;;;4.53;;
27543;SDS011;17996;51.056;3.656;2023-01-01T00:44:07;15.32;;;4.03;;
27543;SDS011;17996;51.056;3.656;2023-01-01T00:46:32;14.77;;;3.33;;
27543;SDS011;17996;51.056;3.656;2023-01-01T00:48:58;11.57;;;3.35;;
27543;SDS011;17996;51.056;3.656;2023-01-01T00:51:24;18.65;;;3.70;;
27543;SDS011;17996;51.056;3.656;2023-01-01T00:53:49;28.67;;;4.65;;
27543;SDS011;17996;51.056;3.656;2023-01-01T00:56:15;11.77;;;3.53;;
27543;SDS011;17996;51.056;3.656;2023-01-01T00:58:40;11.73;;;3.42;;
27543;SDS011;17996;51.056;3.656;2023-01-01T01:01:06;13.88;;;3.38;;
27543;SDS011;17996;51.056;3.656;2023-01-01T01:03:32;14.57;;;4.13;;
27543;SDS011;17996;51.056;3.656;2023-01-01T01:08:27;13.18;;;3.15;;
27543;SDS011;17996;51.056;3.656;2023-01-01T01:10:54;12.57;;;4.07;;
27543;SDS011;17996;51.056;3.656;2023-01-01T01:13:20;8.85;;;2.92;;
27543;SDS011;17996;51.056;3.656;2023-01-01T01:15:46;13.52;;;3.80;;
27543;SDS011;17996;51.056;3.656;2023-01-01T01:18:12;15.13;;;3.58;;
27543;SDS011;17996;51.056;3.656;2023-01-01T01:20:37;15.43;;;3.10;;
27543;SDS011;17996;51.056;3.656;2023-01-01T01:23:03;8.50;;;2.90;;
27543;SDS011;17996;51.056;3.656;2023-01-01T01:25:29;10.20;;;2.80;;
27543;SDS011;17996;51.056;3.656;2023-01-01T01:27:55;14.38;;;3.22;;
27543;SDS011;17996;51.056;3.656;2023-01-01T01:30:21;12.23;;;3.97;;
27543;SDS011;17996;51.056;3.656;2023-01-01T01:32:46;14.90;;;4.32;;
27543;SDS011;17996;51.056;3.656;2023-01-01T01:35:12;13.02;;;3.10;;
27543;SDS011;17996;51.056;3.656;2023-01-01T01:37:37;8.60;;;2.78;;
27543;SDS011;17996;51.056;3.656;2023-01-01T01:40:03;12.18;;;3.38;;
27543;SDS011;17996;51.056;3.656;2023-01-01T01:42:29;11.73;;;2.72;;
27543;SDS011;17996;51.056;3.656;2023-01-01T01:50:12;9.85;;;3.00;;
27543;SDS011;17996;51.056;3.656;2023-01-01T01:52:57;16.57;;;3.40;;
27543;SDS011;17996;51.056;3.656;2023-01-01T01:55:44;8.60;;;2.67;;
27543;SDS011;17996;51.056;3.656;2023-01-01T01:58:14;14.68;;;3.00;;
27543;SDS011;17996;51.056;3.656;2023-01-01T02:00:41;8.18;;;2.50;;
27543;SDS011;17996;51.056;3.656;2023-01-01T02:03:08;10.13;;;3.05;;
27543;SDS011;17996;51.056;3.656;2023-01-01T02:05:38;11.80;;;2.83;;
27543;SDS011;17996;51.056;3.656;2023-01-01T02:08:05;13.13;;;3.17;;
27543;SDS011;17996;51.056;3.656;2023-01-01T02:10:32;11.57;;;3.00;;
27543;SDS011;17996;51.056;3.656;2023-01-01T02:12:58;13.07;;;2.90;;
27543;SDS011;17996;51.056;3.656;2023-01-01T02:15:27;13.98;;;2.88;;
27543;SDS011;17996;51.056;3.656;2023-01-01T02:28:49;16.67;;;3.80;;
27543;SDS011;17996;51.056;3.656;2023-01-01T02:31:31;15.20;;;3.28;;
27543;SDS011;17996;51.056;3.656;2023-01-01T02:34:02;10.45;;;3.00;;
27543;SDS011;17996;51.056;3.656;2023-01-01T02:36:30;14.63;;;3.58;;
27543;SDS011;17996;51.056;3.656;2023-01-01T02:39:02;16.67;;;2.78;;
27543;SDS011;17996;51.056;3.656;2023-01-01T02:41:35;11.82;;;2.97;;
27543;SDS011;17996;51.056;3.656;2023-01-01T02:44:09;11.93;;;3.95;;
27543;SDS011;17996;51.056;3.656;2023-01-01T02:46:35;13.57;;;3.10;;
27543;SDS011;17996;51.056;3.656;2023-01-01T02:49:01;14.57;;;2.95;;
27543;SDS011;17996;51.056;3.656;2023-01-01T02:52:02;12.98;;;3.22;;
27543;SDS011;17996;51.056;3.656;2023-01-01T03:00:00;14.20;;;2.88;;
27543;SDS011;17996;51.056;3.656;2023-01-01T03:05:28;12.52;;;3.13;;
27543;SDS011;17996;51.056;3.656;2023-01-01T03:08:01;9.85;;;2.97;;
27543;SDS011;17996;51.056;3.656;2023-01-01T03:10:57;9.63;;;2.85;;
27543;SDS011;17996;51.056;3.656;2023-01-01T03:18:55;10.48;;;2.80;;
27543;SDS011;17996;51.056;3.656;2023-01-01T03:24:18;15.05;;;4.00;;
27543;SDS011;17996;51.056;3.656;2023-01-01T03:26:51;11.70;;;3.17;;
27543;SDS011;17996;51.056;3.656;2023-01-01T03:29:21;12.15;;;3.58;;
27543;SDS011;17996;51.056;3.656;2023-01-01T03:31:49;14.68;;;3.13;;
27543;SDS011;17996;51.056;3.656;2023-01-01T03:34:18;17.92;;;5.15;;
27543;SDS011;17996;51.056;3.656;2023-01-01T03:36:48;13.65;;;2.50;;
27543;SDS011;17996;51.056;3.656;2023-01-01T03:42:15;15.70;;;3.53;;
27543;SDS011;17996;51.056;3.656;2023-01-01T03:47:53;10.65;;;2.83;;
27543;SDS011;17996;51.056;3.656;2023-01-01T03:50:20;12.07;;;2.92;;
27543;SDS011;17996;51.056;3.656;2023-01-01T03:53:08;9.55;;;3.15;;
27543;SDS011;17996;51.056;3.656;2023-01-01T03:56:18;12.15;;;3.08;;
27543;SDS011;17996;51.056;3.656;2023-01-01T03:59:00;14.70;;;2.90;;
27543;SDS011;17996;51.056;3.656;2023-01-01T04:01:39;15.98;;;3.00;;
27543;SDS011;17996;51.056;3.656;2023-01-01T04:04:09;12.73;;;3.63;;
27543;SDS011;17996;51.056;3.656;2023-01-01T04:06:35;16.35;;;2.97;;
27543;SDS011;17996;51.056;3.656;2023-01-01T04:09:01;16.95;;;3.20;;
27543;SDS011;17996;51.056;3.656;2023-01-01T04:11:29;14.23;;;3.80;;
27543;SDS011;17996;51.056;3.656;2023-01-01T04:16:54;20.33;;;3.70;;
27543;SDS011;17996;51.056;3.656;2023-01-01T04:19:20;9.85;;;2.88;;
27543;SDS011;17996;51.056;3.656;2023-01-01T04:21:46;18.60;;;3.45;;
27543;SDS011;17996;51.056;3.656;2023-01-01T04:24:12;15.18;;;3.08;;
27543;SDS011;17996;51.056;3.656;2023-01-01T04:26:39;10.15;;;2.47;;
27543;SDS011;17996;51.056;3.656;2023-01-01T04:29:05;14.00;;;2.92;;
27543;SDS011;17996;51.056;3.656;2023-01-01T04:31:32;10.60;;;3.10;;
27543;SDS011;17996;51.056;3.656;2023-01-01T04:33:58;9.23;;;2.67;;
27543;SDS011;17996;51.056;3.656;2023-01-01T04:36:24;9.75;;;1.85;;
27543;SDS011;17996;51.056;3.656;2023-01-01T04:38:49;7.32;;;1.63;;
27543;SDS011;17996;51.056;3.656;2023-01-01T04:41:15;8.07;;;1.83;;
27543;SDS011;17996;51.056;3.656;2023-01-01T04:43:40;7.38;;;1.83;;
27543;SDS011;17996;51.056;3.656;2023-01-01T04:46:08;8.02;;;1.30;;
27543;SDS011;17996;51.056;3.656;2023-01-01T04:48:34;7.72;;;1.40;;
27543;SDS011;17996;51.056;3.656;2023-01-01T04:51:01;8.90;;;1.67;;
27543;SDS011;17996;51.056;3.656;2023-01-01T04:53:29;6.78;;;1.42;;
27543;SDS011;17996;51.056;3.656;2023-01-01T04:56:05;7.90;;;1.58;;
27543;SDS011;17996;51.056;3.656;2023-01-01T04:58:33;12.88;;;1.92;;
27543;SDS011;17996;51.056;3.656;2023-01-01T05:00:59;8.15;;;1.50;;
27543;SDS011;17996;51.056;3.656;2023-01-01T05:03:25;6.18;;;1.23;;
27543;SDS011;17996;51.056;3.656;2023-01-01T05:11:06;6.53;;;1.45;;
27543;SDS011;17996;51.056;3.656;2023-01-01T05:13:34;9.88;;;1.60;;
27543;SDS011;17996;51.056;3.656;2023-01-01T05:16:04;11.88;;;1.60;;
27543;SDS011;17996;51.056;3.656;2023-01-01T05:18:33;9.82;;;2.13;;
27543;SDS011;17996;51.056;3.656;2023-01-01T05:21:00;9.00;;;2.03;;
27543;SDS011;17996;51.056;3.656;2023-01-01T05:23:27;10.25;;;2.35;;
27543;SDS011;17996;51.056;3.656;2023-01-01T05:25:54;7.10;;;1.92;;
27543;SDS011;17996;51.056;3.656;2023-01-01T05:28:20;14.88;;;2.25;;
27543;SDS011;17996;51.056;3.656;2023-01-01T05:30:45;7.20;;;1.90;;
27543;SDS011;17996;51.056;3.656;2023-01-01T05:33:11;17.75;;;2.83;;
27543;SDS011;17996;51.056;3.656;2023-01-01T05:35:37;9.60;;;1.90;;
27543;SDS011;17996;51.056;3.656;2023-01-01T05:38:03;16.25;;;3.08;;
27543;SDS011;17996;51.056;3.656;2023-01-01T05:40:29;13.40;;;2.20;;
27543;SDS011;17996;51.056;3.656;2023-01-01T05:42:55;14.90;;;2.45;;
27543;SDS011;17996;51.056;3.656;2023-01-01T05:45:21;9.32;;;2.42;;
27543;SDS011;17996;51.056;3.656;2023-01-01T05:47:46;13.95;;;2.42;;
27543;SDS011;17996;51.056;3.656;2023-01-01T05:50:12;12.45;;;2.40;;
27543;SDS011;17996;51.056;3.656;2023-01-01T05:52:38;13.85;;;2.35;;
27543;SDS011;17996;51.056;3.656;2023-01-01T05:55:04;10.93;;;2.53;;
27543;SDS011;17996;51.056;3.656;2023-01-01T05:57:29;11.77;;;2.35;;
27543;SDS011;17996;51.056;3.656;2023-01-01T05:59:55;14.57;;;2.70;;
27543;SDS011;17996;51.056;3.656;2023-01-01T06:02:21;15.00;;;3.17;;
27543;SDS011;17996;51.056;3.656;2023-01-01T06:04:46;15.98;;;2.88;;
27543;SDS011;17996;51.056;3.656;2023-01-01T06:07:12;9.75;;;2.28;;
27543;SDS011;17996;51.056;3.656;2023-01-01T06:09:38;14.73;;;3.22;;
27543;SDS011;17996;51.056;3.656;2023-01-01T06:12:04;7.70;;;2.03;;
27543;SDS011;17996;51.056;3.656;2023-01-01T06:14:30;16.33;;;2.90;;
27543;SDS011;17996;51.056;3.656;2023-01-01T06:16:55;13.20;;;2.60;;
27543;SDS011;17996;51.056;3.656;2023-01-01T06:19:21;14.90;;;2.78;;
27543;SDS011;17996;51.056;3.656;2023-01-01T06:21:46;15.88;;;2.58;;
27543;SDS011;17996;51.056;3.656;2023-01-01T06:24:12;19.55;;;2.72;;
27543;SDS011;17996;51.056;3.656;2023-01-01T06:26:38;8.20;;;2.38;;
27543;SDS011;17996;51.056;3.656;2023-01-01T06:29:04;12.93;;;2.83;;
27543;SDS011;17996;51.056;3.656;2023-01-01T06:31:30;11.93;;;3.03;;
27543;SDS011;17996;51.056;3.656;2023-01-01T06:33:56;12.13;;;2.90;;
27543;SDS011;17996;51.056;3.656;2023-01-01T06:36:22;16.50;;;2.55;;
27543;SDS011;17996;51.056;3.656;2023-01-01T06:38:50;15.77;;;4.28;;
27543;SDS011;17996;51.056;3.656;2023-01-01T06:41:20;10.52;;;2.85;;
27543;SDS011;17996;51.056;3.656;2023-01-01T06:43:47;22.85;;;3.80;;
27543;SDS011;17996;51.056;3.656;2023-01-01T06:46:17;16.95;;;2.95;;
27543;SDS011;17996;51.056;3.656;2023-01-01T06:48:43;14.20;;;2.75;;
27543;SDS011;17996;51.056;3.656;2023-01-01T06:51:11;16.48;;;3.17;;
27543;SDS011;17996;51.056;3.656;2023-01-01T06:53:39;15.90;;;2.92;;
27543;SDS011;17996;51.056;3.656;2023-01-01T06:56:06;18.92;;;2.92;;
27543;SDS011;17996;51.056;3.656;2023-01-01T06:58:32;14.40;;;2.28;;
27543;SDS011;17996;51.056;3.656;2023-01-01T07:03:55;17.67;;;3.03;;
27543;SDS011;17996;51.056;3.656;2023-01-01T07:06:25;16.42;;;3.13;;
27543;SDS011;17996;51.056;3.656;2023-01-01T07:08:52;17.20;;;3.35;;
27543;SDS011;17996;51.056;3.656;2023-01-01T07:11:18;16.25;;;2.67;;
27543;SDS011;17996;51.056;3.656;2023-01-01T07:13:43;18.45;;;2.40;;
27543;SDS011;17996;51.056;3.656;2023-01-01T07:16:09;13.85;;;3.20;;
27543;SDS011;17996;51.056;3.656;2023-01-01T07:18:35;16.83;;;2.33;;
27543;SDS011;17996;51.056;3.656;2023-01-01T07:21:01;14.23;;;2.20;;
27543;SDS011;17996;51.056;3.656;2023-01-01T07:23:28;18.98;;;2.88;;
27543;SDS011;17996;51.056;3.656;2023-01-01T07:25:55;18.13;;;4.25;;
27543;SDS011;17996;51.056;3.656;2023-01-01T07:28:22;16.02;;;2.95;;
27543;SDS011;17996;51.056;3.656;2023-01-01T07:30:48;13.52;;;2.70;;
27543;SDS011;17996;51.056;3.656;2023-01-01T07:33:15;17.27;;;3.15;;
27543;SDS011;17996;51.056;3.656;2023-01-01T07:35:43;17.20;;;2.88;;
27543;SDS011;17996;51.056;3.656;2023-01-01T07:38:10;12.93;;;2.88;;
27543;SDS011;17996;51.056;3.656;2023-01-01T07:40:36;12.57;;;2.70;;
27543;SDS011;17996;51.056;3.656;2023-01-01T07:43:02;18.55;;;3.60;;
27543;SDS011;17996;51.056;3.656;2023-01-01T07:45:28;11.45;;;2.30;;
27543;SDS011;17996;51.056;3.656;2023-01-01T07:47:54;13.27;;;2.70;;
27543;SDS011;17996;51.056;3.656;2023-01-01T07:50:21;19.30;;;4.45;;
27543;SDS011;17996;51.056;3.656;2023-01-01T07:52:48;15.02;;;3.05;;
27543;SDS011;17996;51.056;3.656;2023-01-01T07:55:14;8.15;;;2.63;;
27543;SDS011;17996;51.056;3.656;2023-01-01T07:57:42;23.27;;;3.55;;
27543;SDS011;17996;51.056;3.656;2023-01-01T08:00:08;18.83;;;3.50;;
27543;SDS011;17996;51.056;3.656;2023-01-01T08:02:35;15.00;;;3.40;;
27543;SDS011;17996;51.056;3.656;2023-01-01T08:05:01;25.40;;;4.15;;
27543;SDS011;17996;51.056;3.656;2023-01-01T08:07:27;13.43;;;3.60;;
27543;SDS011;17996;51.056;3.656;2023-01-01T08:09:52;20.75;;;3.78;;
27543;SDS011;17996;51.056;3.656;2023-01-01T08:12:18;23.95;;;3.88;;
27543;SDS011;17996;51.056;3.656;2023-01-01T08:14:44;16.05;;;3.58;;
27543;SDS011;17996;51.056;3.656;2023-01-01T08:17:09;21.42;;;4.32;;
27543;SDS011;17996;51.056;3.656;2023-01-01T08:19:35;15.73;;;3.80;;
27543;SDS011;17996;51.056;3.656;2023-01-01T08:22:01;18.10;;;4.07;;
27543;SDS011;17996;51.056;3.656;2023-01-01T08:24:26;21.23;;;3.97;;
27543;SDS011;17996;51.056;3.656;2023-01-01T08:26:52;16.02;;;4.35;;
27543;SDS011;17996;51.056;3.656;2023-01-01T08:29:18;16.13;;;3.50;;
27543;SDS011;17996;51.056;3.656;2023-01-01T08:31:43;16.50;;;3.47;;
27543;SDS011;17996;51.056;3.656;2023-01-01T08:34:09;23.73;;;4.65;;
27543;SDS011;17996;51.056;3.656;2023-01-01T08:36:35;17.73;;;3.80;;
27543;SDS011;17996;51.056;3.656;2023-01-01T08:39:02;21.80;;;4.13;;
27543;SDS011;17996;51.056;3.656;2023-01-01T08:41:28;22.85;;;5.00;;
27543;SDS011;17996;51.056;3.656;2023-01-01T08:43:53;18.50;;;4.97;;
27543;SDS011;17996;51.056;3.656;2023-01-01T08:46:19;22.48;;;3.97;;
27543;SDS011;17996;51.056;3.656;2023-01-01T08:48:45;14.93;;;4.05;;
27543;SDS011;17996;51.056;3.656;2023-01-01T08:51:10;26.67;;;4.93;;
27543;SDS011;17996;51.056;3.656;2023-01-01T08:53:36;22.55;;;4.55;;
27543;SDS011;17996;51.056;3.656;2023-01-01T08:56:05;14.65;;;4.30;;
27543;SDS011;17996;51.056;3.656;2023-01-01T08:58:34;28.45;;;4.60;;
27543;SDS011;17996;51.056;3.656;2023-01-01T09:01:00;26.17;;;4.88;;
27543;SDS011;17996;51.056;3.656;2023-01-01T09:03:26;19.10;;;4.22;;
27543;SDS011;17996;51.056;3.656;2023-01-01T09:05:52;14.18;;;3.97;;
27543;SDS011;17996;51.056;3.656;2023-01-01T09:08:18;16.45;;;3.80;;
27543;SDS011;17996;51.056;3.656;2023-01-01T09:10:45;23.73;;;4.28;;
27543;SDS011;17996;51.056;3.656;2023-01-01T09:13:11;15.57;;;3.70;;
27543;SDS011;17996;51.056;3.656;2023-01-01T09:15:38;23.20;;;4.88;;
27543;SDS011;17996;51.056;3.656;2023-01-01T09:18:04;21.50;;;4.53;;
27543;SDS011;17996;51.056;3.656;2023-01-01T09:20:30;19.60;;;4.55;;
27543;SDS011;17996;51.056;3.656;2023-01-01T09:22:56;20.90;;;4.30;;
27543;SDS011;17996;51.056;3.656;2023-01-01T09:25:22;16.23;;;3.97;;
27543;SDS011;17996;51.056;3.656;2023-01-01T09:27:47;20.50;;;4.00;;
27543;SDS011;17996;51.056;3.656;2023-01-01T09:30:13;21.55;;;4.38;;
27543;SDS011;17996;51.056;3.656;2023-01-01T09:32:39;13.00;;;3.63;;
27543;SDS011;17996;51.056;3.656;2023-01-01T09:35:05;24.15;;;4.45;;
27543;SDS011;17996;51.056;3.656;2023-01-01T09:37:31;19.70;;;4.07;;
27543;SDS011;17996;51.056;3.656;2023-01-01T09:39:58;20.63;;;4.63;;
27543;SDS011;17996;51.056;3.656;2023-01-01T09:47:57;20.85;;;3.92;;
27543;SDS011;17996;51.056;3.656;2023-01-01T09:50:37;25.45;;;5.25;;
27543;SDS011;17996;51.056;3.656;2023-01-01T09:53:06;25.67;;;3.92;;
27543;SDS011;17996;51.056;3.656;2023-01-01T09:55:49;21.92;;;4.43;;
27543;SDS011;17996;51.056;3.656;2023-01-01T09:58:26;19.27;;;3.70;;
27543;SDS011;17996;51.056;3.656;2023-01-01T10:00:57;11.93;;;3.53;;
27543;SDS011;17996;51.056;3.656;2023-01-01T10:06:55;20.70;;;4.00;;
27543;SDS011;17996;51.056;3.656;2023-01-01T10:09:26;19.55;;;3.97;;
27543;SDS011;17996;51.056;3.656;2023-01-01T10:15:10;23.38;;;4.70;;
27543;SDS011;17996;51.056;3.656;2023-01-01T10:17:56;23.70;;;4.32;;
27543;SDS011;17996;51.056;3.656;2023-01-01T10:20:25;17.40;;;3.85;;
27543;SDS011;17996;51.056;3.656;2023-01-01T10:23:00;24.15;;;4.43;;
27543;SDS011;17996;51.056;3.656;2023-01-01T10:25:34;19.45;;;4.90;;
27543;SDS011;17996;51.056;3.656;2023-01-01T10:28:04;21.90;;;4.07;;
27543;SDS011;17996;51.056;3.656;2023-01-01T10:30:38;21.73;;;5.22;;
27543;SDS011;17996;51.056;3.656;2023-01-01T10:33:07;16.45;;;4.00;;
27543;SDS011;17996;51.056;3.656;2023-01-01T10:35:39;26.25;;;5.15;;
27543;SDS011;17996;51.056;3.656;2023-01-01T10:38:05;26.60;;;4.50;;
27543;SDS011;17996;51.056;3.656;2023-01-01T10:40:30;13.38;;;3.70;;
27543;SDS011;17996;51.056;3.656;2023-01-01T10:42:57;14.65;;;3.83;;
27543;SDS011;17996;51.056;3.656;2023-01-01T10:45:31;24.25;;;4.45;;
27543;SDS011;17996;51.056;3.656;2023-01-01T10:48:13;22.77;;;3.83;;
27543;SDS011;17996;51.056;3.656;2023-01-01T10:50:45;18.67;;;4.10;;
27543;SDS011;17996;51.056;3.656;2023-01-01T10:55:51;17.73;;;3.97;;
27543;SDS011;17996;51.056;3.656;2023-01-01T10:58:25;23.05;;;3.85;;
27543;SDS011;17996;51.056;3.656;2023-01-01T11:01:18;21.40;;;4.10;;
27543;SDS011;17996;51.056;3.656;2023-01-01T11:06:40;23.23;;;4.72;;
27543;SDS011;17996;51.056;3.656;2023-01-01T11:09:20;23.98;;;4.40;;
27543;SDS011;17996;51.056;3.656;2023-01-01T11:11:57;27.00;;;4.88;;
27543;SDS011;17996;51.056;3.656;2023-01-01T11:16:55;15.75;;;3.60;;
27543;SDS011;17996;51.056;3.656;2023-01-01T11:21:55;23.40;;;4.25;;
27543;SDS011;17996;51.056;3.656;2023-01-01T11:24:22;15.90;;;4.05;;
27543;SDS011;17996;51.056;3.656;2023-01-01T11:26:50;25.63;;;4.88;;
27543;SDS011;17996;51.056;3.656;2023-01-01T11:29:23;21.65;;;4.18;;
27543;SDS011;17996;51.056;3.656;2023-01-01T11:31:49;16.48;;;4.22;;
27543;SDS011;17996;51.056;3.656;2023-01-01T11:37:14;19.52;;;4.78;;
27543;SDS011;17996;51.056;3.656;2023-01-01T11:42:20;23.98;;;3.47;;
27543;SDS011;17996;51.056;3.656;2023-01-01T11:44:50;22.63;;;4.78;;
27543;SDS011;17996;51.056;3.656;2023-01-01T11:47:28;21.55;;;3.85;;
27543;SDS011;17996;51.056;3.656;2023-01-01T11:49:59;20.05;;;4.10;;
27543;SDS011;17996;51.056;3.656;2023-01-01T11:52:37;21.15;;;4.78;;
27543;SDS011;17996;51.056;3.656;2023-01-01T11:55:24;17.70;;;3.88;;
27543;SDS011;17996;51.056;3.656;2023-01-01T11:58:23;23.70;;;4.53;;
27543;SDS011;17996;51.056;3.656;2023-01-01T12:00:53;19.27;;;3.90;;
27543;SDS011;17996;51.056;3.656;2023-01-01T12:06:07;22.52;;;4.38;;
27543;SDS011;17996;51.056;3.656;2023-01-01T12:09:05;24.45;;;4.13;;
27543;SDS011;17996;51.056;3.656;2023-01-01T12:11:56;22.52;;;4.55;;
27543;SDS011;17996;51.056;3.656;2023-01-01T12:14:39;28.88;;;4.78;;
27543;SDS011;17996;51.056;3.656;2023-01-01T12:22:39;15.30;;;4.75;;
27543;SDS011;17996;51.056;3.656;2023-01-01T12:25:05;17.92;;;3.80;;
27543;SDS011;17996;51.056;3.656;2023-01-01T12:27:40;15.65;;;4.07;;
27543;SDS011;17996;51.056;3.656;2023-01-01T12:36:02;18.50;;;4.78;;
27543;SDS011;17996;51.056;3.656;2023-01-01T12:41:36;23.33;;;4.53;;
27543;SDS011;17996;51.056;3.656;2023-01-01T12:44:21;19.33;;;4.50;;
27543;SDS011;17996;51.056;3.656;2023-01-01T12:58:10;19.42;;;4.22;;
27543;SDS011;17996;51.056;3.656;2023-01-01T13:00:42;23.90;;;4.50;;
27543;SDS011;17996;51.056;3.656;2023-01-01T13:03:20;25.83;;;4.78;;
27543;SDS011;17996;51.056;3.656;2023-01-01T13:05:55;25.58;;;4.50;;
27543;SDS011;17996;51.056;3.656;2023-01-01T13:08:21;24.30;;;4.93;;
27543;SDS011;17996;51.056;3.656;2023-01-01T13:10:54;13.85;;;4.25;;
27543;SDS011;17996;51.056;3.656;2023-01-01T13:13:21;26.38;;;4.82;;
27543;SDS011;17996;51.056;3.656;2023-01-01T13:15:48;24.20;;;5.18;;
27543;SDS011;17996;51.056;3.656;2023-01-01T13:18:22;23.17;;;4.72;;
27543;SDS011;17996;51.056;3.656;2023-01-01T13:40:26;24.67;;;4.90;;
27543;SDS011;17996;51.056;3.656;2023-01-01T13:53:44;26.08;;;4.60;;
27543;SDS011;17996;51.056;3.656;2023-01-01T13:56:33;22.05;;;5.20;;
27543;SDS011;17996;51.056;3.656;2023-01-01T14:07:31;18.65;;;4.95;;
27543;SDS011;17996;51.056;3.656;2023-01-01T14:10:15;26.90;;;5.47;;
27543;SDS011;17996;51.056;3.656;2023-01-01T14:12:41;18.45;;;4.00;;
27543;SDS011;17996;51.056;3.656;2023-01-01T14:15:26;20.23;;;4.45;;
27543;SDS011;17996;51.056;3.656;2023-01-01T14:17:54;24.25;;;5.68;;
27543;SDS011;17996;51.056;3.656;2023-01-01T14:20:26;20.77;;;4.22;;
27543;SDS011;17996;51.056;3.656;2023-01-01T14:22:57;27.60;;;5.35;;
27543;SDS011;17996;51.056;3.656;2023-01-01T14:25:29;26.00;;;5.50;;
27543;SDS011;17996;51.056;3.656;2023-01-01T14:27:55;23.35;;;3.85;;
27543;SDS011;17996;51.056;3.656;2023-01-01T14:30:23;25.70;;;5.35;;
27543;SDS011;17996;51.056;3.656;2023-01-01T14:32:56;23.63;;;4.60;;
27543;SDS011;17996;51.056;3.656;2023-01-01T14:35:26;26.02;;;4.93;;
27543;SDS011;17996;51.056;3.656;2023-01-01T14:37:52;30.17;;;5.10;;
27543;SDS011;17996;51.056;3.656;2023-01-01T14:43:03;21.38;;;5.28;;
27543;SDS011;17996;51.056;3.656;2023-01-01T14:48:00;25.05;;;4.22;;
27543;SDS011;17996;51.056;3.656;2023-01-01T14:50:28;21.40;;;4.97;;
27543;SDS011;17996;51.056;3.656;2023-01-01T14:52:56;20.80;;;4.68;;
27543;SDS011;17996;51.056;3.656;2023-01-01T14:55:34;25.60;;;5.25;;
27543;SDS011;17996;51.056;3.656;2023-01-01T14:58:05;30.85;;;5.18;;
27543;SDS011;17996;51.056;3.656;2023-01-01T15:00:46;21.77;;;4.95;;
27543;SDS011;17996;51.056;3.656;2023-01-01T15:03:14;19.05;;;4.18;;
27543;SDS011;17996;51.056;3.656;2023-01-01T15:05:41;18.52;;;4.72;;
27543;SDS011;17996;51.056;3.656;2023-01-01T15:08:19;22.45;;;6.13;;
27543;SDS011;17996;51.056;3.656;2023-01-01T15:10:46;24.25;;;4.95;;
27543;SDS011;17996;51.056;3.656;2023-01-01T15:13:19;17.33;;;4.72;;
27543;SDS011;17996;51.056;3.656;2023-01-01T15:15:48;24.70;;;4.82;;
27543;SDS011;17996;51.056;3.656;2023-01-01T15:18:35;26.42;;;6.20;;
27543;SDS011;17996;51.056;3.656;2023-01-01T15:21:06;22.45;;;5.22;;
27543;SDS011;17996;51.056;3.656;2023-01-01T15:23:36;31.48;;;5.25;;
27543;SDS011;17996;51.056;3.656;2023-01-01T15:26:05;24.63;;;6.25;;
27543;SDS011;17996;51.056;3.656;2023-01-01T15:28:40;21.85;;;5.65;;
27543;SDS011;17996;51.056;3.656;2023-01-01T15:31:06;32.40;;;5.80;;
27543;SDS011;17996;51.056;3.656;2023-01-01T15:33:32;31.65;;;11.75;;
27543;SDS011;17996;51.056;3.656;2023-01-01T15:35:57;27.27;;;8.25;;
27543;SDS011;17996;51.056;3.656;2023-01-01T15:38:27;34.25;;;6.80;;
27543;SDS011;17996;51.056;3.656;2023-01-01T15:40:58;20.80;;;6.53;;
27543;SDS011;17996;51.056;3.656;2023-01-01T15:43:28;25.40;;;6.97;;
27543;SDS011;17996;51.056;3.656;2023-01-01T15:45:56;29.52;;;6.78;;
27543;SDS011;17996;51.056;3.656;2023-01-01T15:51:14;21.77;;;5.78;;
27543;SDS011;17996;51.056;3.656;2023-01-01T15:53:49;28.00;;;6.43;;
27543;SDS011;17996;51.056;3.656;2023-01-01T15:56:18;23.02;;;5.20;;
27543;SDS011;17996;51.056;3.656;2023-01-01T15:58:57;17.58;;;5.63;;
27543;SDS011;17996;51.056;3.656;2023-01-01T16:01:28;30.17;;;6.65;;
27543;SDS011;17996;51.056;3.656;2023-01-01T16:04:00;19.42;;;7.38;;
27543;SDS011;17996;51.056;3.656;2023-01-01T16:06:31;24.25;;;6.93;;
27543;SDS011;17996;51.056;3.656;2023-01-01T16:08:58;21.33;;;6.50;;
27543;SDS011;17996;51.056;3.656;2023-01-01T16:11:23;23.45;;;6.38;;
27543;SDS011;17996;51.056;3.656;2023-01-01T16:13:49;19.38;;;5.40;;
27543;SDS011;17996;51.056;3.656;2023-01-01T16:16:27;23.90;;;5.60;;
27543;SDS011;17996;51.056;3.656;2023-01-01T16:18:54;17.25;;;6.45;;
27543;SDS011;17996;51.056;3.656;2023-01-01T16:21:25;18.88;;;6.60;;
27543;SDS011;17996;51.056;3.656;2023-01-01T16:23:53;19.92;;;5.65;;
27543;SDS011;17996;51.056;3.656;2023-01-01T16:26:19;15.13;;;6.32;;
27543;SDS011;17996;51.056;3.656;2023-01-01T16:28:46;30.20;;;7.57;;
27543;SDS011;17996;51.056;3.656;2023-01-01T16:31:15;19.85;;;6.85;;
27543;SDS011;17996;51.056;3.656;2023-01-01T16:33:46;22.83;;;6.30;;
27543;SDS011;17996;51.056;3.656;2023-01-01T16:36:18;20.30;;;5.63;;
27543;SDS011;17996;51.056;3.656;2023-01-01T16:38:43;27.23;;;5.78;;
27543;SDS011;17996;51.056;3.656;2023-01-01T16:41:13;21.77;;;7.28;;
27543;SDS011;17996;51.056;3.656;2023-01-01T16:43:40;17.17;;;5.68;;
27543;SDS011;17996;51.056;3.656;2023-01-01T16:46:06;18.67;;;5.80;;
27543;SDS011;17996;51.056;3.656;2023-01-01T16:48:32;10.77;;;4.35;;
27543;SDS011;17996;51.056;3.656;2023-01-01T16:50:57;18.00;;;4.90;;
27543;SDS011;17996;51.056;3.656;2023-01-01T16:53:23;16.42;;;4.75;;
27543;SDS011;17996;51.056;3.656;2023-01-01T16:55:49;11.88;;;5.47;;
27543;SDS011;17996;51.056;3.656;2023-01-01T16:58:16;20.33;;;5.78;;
27543;SDS011;17996;51.056;3.656;2023-01-01T17:00:41;18.58;;;5.82;;
27543;SDS011;17996;51.056;3.656;2023-01-01T17:03:07;27.67;;;7.35;;
27543;SDS011;17996;51.056;3.656;2023-01-01T17:05:36;16.80;;;5.05;;
27543;SDS011;17996;51.056;3.656;2023-01-01T17:08:02;19.85;;;6.15;;
27543;SDS011;17996;51.056;3.656;2023-01-01T17:10:28;12.23;;;5.22;;
27543;SDS011;17996;51.056;3.656;2023-01-01T17:12:54;18.98;;;6.75;;
27543;SDS011;17996;51.056;3.656;2023-01-01T17:15:25;15.90;;;6.18;;
27543;SDS011;17996;51.056;3.656;2023-01-01T17:17:52;15.57;;;6.43;;
27543;SDS011;17996;51.056;3.656;2023-01-01T17:20:17;15.55;;;6.38;;
27543;SDS011;17996;51.056;3.656;2023-01-01T17:22:43;18.02;;;6.38;;